sensor_id;sensor_type;location;lat;lon;timestamp;P1;durP1;ratioP1;P2;durP2;ratioP2
25721;SDS011;13578;53.450;15.496;2023-07-29T00:00:46;1.35;;;0.80;;
25721;SDS011;13578;53.450;15.496;2023-07-29T00:03:47;1.52;;;1.00;;
25721;SDS011;13578;53.450;15.496;2023-07-29T00:06:47;5.03;;;0.88;;
25721;SDS011;13578;53.450;15.496;2023-07-29T00:09:48;1.83;;;0.73;;
25721;SDS011;13578;53.450;15.496;2023-07-29T00:12:49;2.55;;;1.25;;
25721;SDS011;13578;53.450;15.496;2023-07-29T00:15:49;2.97;;;1.30;;
25721;SDS011;13578;53.450;15.496;2023-07-29T00:18:50;1.75;;;1.23;;
25721;SDS011;13578;53.450;15.496;2023-07-29T00:21:51;6.25;;;1.60;;
25721;SDS011;13578;53.450;15.496;2023-07-29T00:24:52;3.80;;;1.88;;
25721;SDS011;13578;53.450;15.496;2023-07-29T00:27:58;4.20;;;1.77;;
25721;SDS011;13578;53.450;15.496;2023-07-29T00:30:59;3.25;;;1.48;;
25721;SDS011;13578;53.450;15.496;2023-07-29T00:33:59;3.03;;;1.90;;
25721;SDS011;13578;53.450;15.496;2023-07-29T00:37:00;5.13;;;1.10;;
25721;SDS011;13578;53.450;15.496;2023-07-29T00:40:01;1.65;;;1.17;;
25721;SDS011;13578;53.450;15.496;2023-07-29T00:43:01;3.22;;;1.02;;
25721;SDS011;13578;53.450;15.496;2023-07-29T00:46:02;4.25;;;1.30;;
25721;SDS011;13578;53.450;15.496;2023-07-29T00:49:03;2.83;;;1.95;;
25721;SDS011;13578;53.450;15.496;2023-07-29T00:52:03;7.00;;;2.40;;
25721;SDS011;13578;53.450;15.496;2023-07-29T00:55:05;3.47;;;1.98;;
25721;SDS011;13578;53.450;15.496;2023-07-29T00:58:07;5.32;;;3.10;;
25721;SDS011;13578;53.450;15.496;2023-07-29T01:01:07;4.00;;;2.78;;
25721;SDS011;13578;53.450;15.496;2023-07-29T01:04:08;4.43;;;2.45;;
25721;SDS011;13578;53.450;15.496;2023-07-29T01:07:14;5.40;;;2.28;;
25721;SDS011;13578;53.450;15.496;2023-07-29T01:16:51;3.08;;;1.95;;
25721;SDS011;13578;53.450;15.496;2023-07-29T01:23:03;15.95;;;3.38;;
25721;SDS011;13578;53.450;15.496;2023-07-29T01:26:04;39.50;;;4.72;;
25721;SDS011;13578;53.450;15.496;2023-07-29T01:29:05;4.20;;;2.38;;
25721;SDS011;13578;53.450;15.496;2023-07-29T01:32:10;5.95;;;2.28;;
25721;SDS011;13578;53.450;15.496;2023-07-29T01:38:38;1.80;;;1.40;;
25721;SDS011;13578;53.450;15.496;2023-07-29T01:41:41;3.28;;;1.70;;
25721;SDS011;13578;53.450;15.496;2023-07-29T01:44:43;3.58;;;2.03;;
25721;SDS011;13578;53.450;15.496;2023-07-29T01:47:44;3.53;;;1.67;;
25721;SDS011;13578;53.450;15.496;2023-07-29T01:50:44;2.38;;;1.73;;
25721;SDS011;13578;53.450;15.496;2023-07-29T01:53:45;2.70;;;1.70;;
25721;SDS011;13578;53.450;15.496;2023-07-29T01:56:45;3.28;;;1.52;;
25721;SDS011;13578;53.450;15.496;2023-07-29T01:59:46;3.33;;;1.23;;
25721;SDS011;13578;53.450;15.496;2023-07-29T02:02:47;2.75;;;1.45;;
25721;SDS011;13578;53.450;15.496;2023-07-29T02:05:48;3.40;;;1.35;;
25721;SDS011;13578;53.450;15.496;2023-07-29T02:08:49;2.40;;;1.80;;
25721;SDS011;13578;53.450;15.496;2023-07-29T02:11:49;5.00;;;2.30;;
25721;SDS011;13578;53.450;15.496;2023-07-29T02:14:50;6.93;;;1.73;;
25721;SDS011;13578;53.450;15.496;2023-07-29T02:17:50;2.25;;;1.90;;
25721;SDS011;13578;53.450;15.496;2023-07-29T02:20:52;6.35;;;2.20;;
25721;SDS011;13578;53.450;15.496;2023-07-29T02:23:52;6.97;;;2.10;;
25721;SDS011;13578;53.450;15.496;2023-07-29T02:26:53;2.83;;;1.75;;
25721;SDS011;13578;53.450;15.496;2023-07-29T02:29:53;3.28;;;2.17;;
25721;SDS011;13578;53.450;15.496;2023-07-29T02:32:54;2.78;;;1.90;;
25721;SDS011;13578;53.450;15.496;2023-07-29T02:35:55;4.38;;;2.22;;
25721;SDS011;13578;53.450;15.496;2023-07-29T02:38:55;8.20;;;2.17;;
25721;SDS011;13578;53.450;15.496;2023-07-29T02:41:56;4.15;;;1.85;;
25721;SDS011;13578;53.450;15.496;2023-07-29T02:44:58;2.05;;;1.40;;
25721;SDS011;13578;53.450;15.496;2023-07-29T02:47:59;2.67;;;1.27;;
25721;SDS011;13578;53.450;15.496;2023-07-29T02:50:59;2.45;;;1.50;;
25721;SDS011;13578;53.450;15.496;2023-07-29T02:54:00;2.70;;;1.60;;
25721;SDS011;13578;53.450;15.496;2023-07-29T02:57:00;1.52;;;1.10;;
25721;SDS011;13578;53.450;15.496;2023-07-29T03:00:01;2.38;;;1.58;;
25721;SDS011;13578;53.450;15.496;2023-07-29T03:03:02;3.35;;;1.83;;
25721;SDS011;13578;53.450;15.496;2023-07-29T03:06:03;3.45;;;2.08;;
25721;SDS011;13578;53.450;15.496;2023-07-29T03:09:05;4.95;;;2.00;;
25721;SDS011;13578;53.450;15.496;2023-07-29T03:12:06;2.22;;;1.83;;
25721;SDS011;13578;53.450;15.496;2023-07-29T03:15:07;6.05;;;1.65;;
25721;SDS011;13578;53.450;15.496;2023-07-29T03:18:08;2.40;;;1.70;;
25721;SDS011;13578;53.450;15.496;2023-07-29T03:21:09;2.90;;;1.80;;
25721;SDS011;13578;53.450;15.496;2023-07-29T03:24:10;3.22;;;2.00;;
25721;SDS011;13578;53.450;15.496;2023-07-29T03:27:11;2.78;;;1.75;;
25721;SDS011;13578;53.450;15.496;2023-07-29T03:30:11;3.47;;;2.15;;
25721;SDS011;13578;53.450;15.496;2023-07-29T03:33:12;3.80;;;2.30;;
25721;SDS011;13578;53.450;15.496;2023-07-29T03:36:12;2.22;;;1.83;;
25721;SDS011;13578;53.450;15.496;2023-07-29T03:39:14;2.40;;;1.80;;
25721;SDS011;13578;53.450;15.496;2023-07-29T03:42:15;3.45;;;2.38;;
25721;SDS011;13578;53.450;15.496;2023-07-29T03:45:15;6.10;;;2.40;;
25721;SDS011;13578;53.450;15.496;2023-07-29T03:48:16;4.78;;;2.10;;
25721;SDS011;13578;53.450;15.496;2023-07-29T03:51:17;2.88;;;2.22;;
25721;SDS011;13578;53.450;15.496;2023-07-29T03:54:18;3.80;;;2.20;;
25721;SDS011;13578;53.450;15.496;2023-07-29T03:57:18;3.33;;;2.33;;
25721;SDS011;13578;53.450;15.496;2023-07-29T04:00:19;2.40;;;1.70;;
25721;SDS011;13578;53.450;15.496;2023-07-29T04:03:19;3.70;;;2.42;;
25721;SDS011;13578;53.450;15.496;2023-07-29T04:06:20;3.28;;;1.80;;
25721;SDS011;13578;53.450;15.496;2023-07-29T04:09:21;3.05;;;1.67;;
25721;SDS011;13578;53.450;15.496;2023-07-29T04:12:22;3.22;;;1.85;;
25721;SDS011;13578;53.450;15.496;2023-07-29T04:15:23;3.22;;;2.33;;
25721;SDS011;13578;53.450;15.496;2023-07-29T04:18:23;3.97;;;2.00;;
25721;SDS011;13578;53.450;15.496;2023-07-29T04:21:24;3.97;;;1.83;;
25721;SDS011;13578;53.450;15.496;2023-07-29T04:24:25;3.63;;;2.35;;
25721;SDS011;13578;53.450;15.496;2023-07-29T04:27:25;4.78;;;2.33;;
25721;SDS011;13578;53.450;15.496;2023-07-29T04:30:26;3.25;;;2.15;;
25721;SDS011;13578;53.450;15.496;2023-07-29T04:33:26;6.03;;;2.72;;
25721;SDS011;13578;53.450;15.496;2023-07-29T04:36:29;3.38;;;2.05;;
25721;SDS011;13578;53.450;15.496;2023-07-29T04:39:30;5.43;;;2.13;;
25721;SDS011;13578;53.450;15.496;2023-07-29T04:42:30;3.72;;;1.95;;
25721;SDS011;13578;53.450;15.496;2023-07-29T04:45:31;3.35;;;2.13;;
25721;SDS011;13578;53.450;15.496;2023-07-29T04:48:31;5.72;;;2.15;;
25721;SDS011;13578;53.450;15.496;2023-07-29T04:51:32;3.83;;;2.10;;
25721;SDS011;13578;53.450;15.496;2023-07-29T04:54:32;4.47;;;2.50;;
25721;SDS011;13578;53.450;15.496;2023-07-29T04:57:33;5.40;;;1.92;;
25721;SDS011;13578;53.450;15.496;2023-07-29T05:00:34;5.07;;;2.10;;
25721;SDS011;13578;53.450;15.496;2023-07-29T05:03:34;5.20;;;2.10;;
25721;SDS011;13578;53.450;15.496;2023-07-29T05:06:35;2.92;;;1.88;;
25721;SDS011;13578;53.450;15.496;2023-07-29T05:09:35;6.25;;;1.73;;
25721;SDS011;13578;53.450;15.496;2023-07-29T05:12:36;2.38;;;1.75;;
25721;SDS011;13578;53.450;15.496;2023-07-29T05:15:37;2.55;;;1.70;;
25721;SDS011;13578;53.450;15.496;2023-07-29T05:18:38;1.98;;;1.23;;
25721;SDS011;13578;53.450;15.496;2023-07-29T05:21:38;2.25;;;1.70;;
25721;SDS011;13578;53.450;15.496;2023-07-29T05:24:39;4.97;;;1.92;;
25721;SDS011;13578;53.450;15.496;2023-07-29T05:27:40;2.83;;;1.48;;
25721;SDS011;13578;53.450;15.496;2023-07-29T05:30:40;2.63;;;1.63;;
25721;SDS011;13578;53.450;15.496;2023-07-29T05:33:41;2.65;;;1.25;;
25721;SDS011;13578;53.450;15.496;2023-07-29T05:36:41;1.60;;;1.05;;
25721;SDS011;13578;53.450;15.496;2023-07-29T05:39:42;2.20;;;1.08;;
25721;SDS011;13578;53.450;15.496;2023-07-29T05:42:43;1.85;;;1.17;;
25721;SDS011;13578;53.450;15.496;2023-07-29T05:45:45;1.67;;;1.00;;
25721;SDS011;13578;53.450;15.496;2023-07-29T05:48:45;3.13;;;1.10;;
25721;SDS011;13578;53.450;15.496;2023-07-29T05:51:46;2.35;;;1.15;;
25721;SDS011;13578;53.450;15.496;2023-07-29T05:54:47;2.13;;;1.40;;
25721;SDS011;13578;53.450;15.496;2023-07-29T05:57:47;1.83;;;1.00;;
25721;SDS011;13578;53.450;15.496;2023-07-29T06:00:48;2.45;;;0.93;;
25721;SDS011;13578;53.450;15.496;2023-07-29T06:03:48;2.10;;;1.25;;
25721;SDS011;13578;53.450;15.496;2023-07-29T06:06:49;1.38;;;1.00;;
25721;SDS011;13578;53.450;15.496;2023-07-29T06:09:50;2.00;;;1.10;;
25721;SDS011;13578;53.450;15.496;2023-07-29T06:12:50;3.72;;;1.08;;
25721;SDS011;13578;53.450;15.496;2023-07-29T06:15:51;5.47;;;1.20;;
25721;SDS011;13578;53.450;15.496;2023-07-29T06:18:51;2.72;;;1.25;;
25721;SDS011;13578;53.450;15.496;2023-07-29T06:21:55;2.05;;;1.10;;
25721;SDS011;13578;53.450;15.496;2023-07-29T06:24:55;1.58;;;0.93;;
25721;SDS011;13578;53.450;15.496;2023-07-29T06:27:56;2.20;;;1.10;;
25721;SDS011;13578;53.450;15.496;2023-07-29T06:30:58;1.60;;;0.90;;
25721;SDS011;13578;53.450;15.496;2023-07-29T06:33:59;2.58;;;1.40;;
25721;SDS011;13578;53.450;15.496;2023-07-29T06:36:59;3.22;;;0.95;;
25721;SDS011;13578;53.450;15.496;2023-07-29T06:40:00;2.05;;;1.13;;
25721;SDS011;13578;53.450;15.496;2023-07-29T06:43:01;2.17;;;1.30;;
25721;SDS011;13578;53.450;15.496;2023-07-29T06:46:01;1.92;;;1.15;;
25721;SDS011;13578;53.450;15.496;2023-07-29T06:49:02;1.23;;;1.00;;
25721;SDS011;13578;53.450;15.496;2023-07-29T06:52:02;2.75;;;1.00;;
25721;SDS011;13578;53.450;15.496;2023-07-29T06:55:03;2.97;;;1.10;;
25721;SDS011;13578;53.450;15.496;2023-07-29T06:58:04;1.80;;;0.90;;
25721;SDS011;13578;53.450;15.496;2023-07-29T07:01:05;1.85;;;1.00;;
25721;SDS011;13578;53.450;15.496;2023-07-29T07:04:05;2.83;;;1.13;;
25721;SDS011;13578;53.450;15.496;2023-07-29T07:07:06;1.38;;;1.00;;
25721;SDS011;13578;53.450;15.496;2023-07-29T07:10:06;1.55;;;1.00;;
25721;SDS011;13578;53.450;15.496;2023-07-29T07:13:07;2.53;;;1.20;;
25721;SDS011;13578;53.450;15.496;2023-07-29T07:16:08;1.27;;;0.82;;
25721;SDS011;13578;53.450;15.496;2023-07-29T07:19:08;1.48;;;0.68;;
25721;SDS011;13578;53.450;15.496;2023-07-29T07:22:09;1.00;;;0.68;;
25721;SDS011;13578;53.450;15.496;2023-07-29T07:25:09;1.40;;;0.85;;
25721;SDS011;13578;53.450;15.496;2023-07-29T07:28:10;1.77;;;0.90;;
25721;SDS011;13578;53.450;15.496;2023-07-29T07:31:11;4.85;;;1.20;;
25721;SDS011;13578;53.450;15.496;2023-07-29T07:34:11;1.60;;;0.80;;
25721;SDS011;13578;53.450;15.496;2023-07-29T07:37:12;2.97;;;1.00;;
25721;SDS011;13578;53.450;15.496;2023-07-29T07:40:12;1.35;;;0.45;;
25721;SDS011;13578;53.450;15.496;2023-07-29T07:43:13;1.10;;;0.70;;
25721;SDS011;13578;53.450;15.496;2023-07-29T07:46:14;1.10;;;0.65;;
25721;SDS011;13578;53.450;15.496;2023-07-29T07:49:14;0.93;;;0.47;;
25721;SDS011;13578;53.450;15.496;2023-07-29T07:52:15;1.55;;;0.70;;
25721;SDS011;13578;53.450;15.496;2023-07-29T07:55:15;3.97;;;0.70;;
25721;SDS011;13578;53.450;15.496;2023-07-29T07:58:16;1.25;;;0.52;;
25721;SDS011;13578;53.450;15.496;2023-07-29T08:01:17;2.50;;;0.60;;
25721;SDS011;13578;53.450;15.496;2023-07-29T08:04:17;0.98;;;0.50;;
25721;SDS011;13578;53.450;15.496;2023-07-29T08:07:18;1.63;;;0.65;;
25721;SDS011;13578;53.450;15.496;2023-07-29T08:10:18;1.23;;;0.50;;
25721;SDS011;13578;53.450;15.496;2023-07-29T08:13:19;1.25;;;0.60;;
25721;SDS011;13578;53.450;15.496;2023-07-29T08:16:20;1.23;;;0.45;;
25721;SDS011;13578;53.450;15.496;2023-07-29T08:19:21;3.97;;;0.43;;
25721;SDS011;13578;53.450;15.496;2023-07-29T08:22:21;1.05;;;0.30;;
25721;SDS011;13578;53.450;15.496;2023-07-29T08:25:22;0.40;;;0.25;;
25721;SDS011;13578;53.450;15.496;2023-07-29T08:28:23;0.52;;;0.25;;
25721;SDS011;13578;53.450;15.496;2023-07-29T08:31:24;0.98;;;0.30;;
25721;SDS011;13578;53.450;15.496;2023-07-29T08:34:24;2.15;;;0.40;;
25721;SDS011;13578;53.450;15.496;2023-07-29T08:37:25;1.85;;;0.40;;
25721;SDS011;13578;53.450;15.496;2023-07-29T08:40:27;0.40;;;0.20;;
25721;SDS011;13578;53.450;15.496;2023-07-29T08:43:30;1.58;;;0.52;;
25721;SDS011;13578;53.450;15.496;2023-07-29T08:46:32;0.77;;;0.40;;
25721;SDS011;13578;53.450;15.496;2023-07-29T08:49:33;1.00;;;0.40;;
25721;SDS011;13578;53.450;15.496;2023-07-29T08:52:34;1.00;;;0.30;;
25721;SDS011;13578;53.450;15.496;2023-07-29T08:55:36;0.70;;;0.20;;
25721;SDS011;13578;53.450;15.496;2023-07-29T08:58:37;0.82;;;0.20;;
25721;SDS011;13578;53.450;15.496;2023-07-29T09:01:39;0.70;;;0.30;;
25721;SDS011;13578;53.450;15.496;2023-07-29T09:04:40;1.33;;;0.40;;
25721;SDS011;13578;53.450;15.496;2023-07-29T09:07:40;0.75;;;0.30;;
25721;SDS011;13578;53.450;15.496;2023-07-29T09:10:42;0.82;;;0.30;;
25721;SDS011;13578;53.450;15.496;2023-07-29T09:13:43;0.60;;;0.35;;
25721;SDS011;13578;53.450;15.496;2023-07-29T09:16:43;1.27;;;0.40;;
25721;SDS011;13578;53.450;15.496;2023-07-29T09:19:47;0.90;;;0.32;;
25721;SDS011;13578;53.450;15.496;2023-07-29T09:22:50;0.47;;;0.20;;
25721;SDS011;13578;53.450;15.496;2023-07-29T09:25:52;0.50;;;0.20;;
25721;SDS011;13578;53.450;15.496;2023-07-29T09:29:03;1.00;;;0.10;;
25721;SDS011;13578;53.450;15.496;2023-07-29T09:32:20;1.60;;;0.35;;
25721;SDS011;13578;53.450;15.496;2023-07-29T09:35:21;6.95;;;0.70;;
25721;SDS011;13578;53.450;15.496;2023-07-29T09:38:28;1.33;;;0.40;;
25721;SDS011;13578;53.450;15.496;2023-07-29T09:41:29;1.33;;;0.45;;
25721;SDS011;13578;53.450;15.496;2023-07-29T09:44:35;1.80;;;0.40;;
25721;SDS011;13578;53.450;15.496;2023-07-29T09:47:36;0.70;;;0.30;;
25721;SDS011;13578;53.450;15.496;2023-07-29T09:50:37;1.08;;;0.55;;
25721;SDS011;13578;53.450;15.496;2023-07-29T09:53:44;1.25;;;0.60;;
25721;SDS011;13578;53.450;15.496;2023-07-29T09:56:46;1.92;;;0.57;;
25721;SDS011;13578;53.450;15.496;2023-07-29T09:59:54;0.98;;;0.43;;
25721;SDS011;13578;53.450;15.496;2023-07-29T10:02:55;1.98;;;0.50;;
25721;SDS011;13578;53.450;15.496;2023-07-29T10:05:59;2.83;;;0.73;;
25721;SDS011;13578;53.450;15.496;2023-07-29T10:09:01;2.97;;;0.88;;
25721;SDS011;13578;53.450;15.496;2023-07-29T10:12:02;3.45;;;0.93;;
25721;SDS011;13578;53.450;15.496;2023-07-29T10:15:06;1.17;;;0.40;;
25721;SDS011;13578;53.450;15.496;2023-07-29T10:18:07;1.00;;;0.30;;
25721;SDS011;13578;53.450;15.496;2023-07-29T10:21:07;0.80;;;0.30;;
25721;SDS011;13578;53.450;15.496;2023-07-29T10:24:09;1.20;;;0.65;;
25721;SDS011;13578;53.450;15.496;2023-07-29T10:27:16;4.30;;;0.40;;
25721;SDS011;13578;53.450;15.496;2023-07-29T10:30:19;1.63;;;0.63;;
25721;SDS011;13578;53.450;15.496;2023-07-29T10:33:19;3.15;;;1.02;;
25721;SDS011;13578;53.450;15.496;2023-07-29T10:36:20;1.30;;;0.68;;
25721;SDS011;13578;53.450;15.496;2023-07-29T10:39:21;1.02;;;0.57;;
25721;SDS011;13578;53.450;15.496;2023-07-29T10:42:24;1.05;;;0.32;;
25721;SDS011;13578;53.450;15.496;2023-07-29T10:45:24;1.67;;;0.63;;
25721;SDS011;13578;53.450;15.496;2023-07-29T10:51:37;1.58;;;0.82;;
25721;SDS011;13578;53.450;15.496;2023-07-29T10:54:41;1.52;;;0.50;;
25721;SDS011;13578;53.450;15.496;2023-07-29T10:57:46;1.33;;;0.60;;
25721;SDS011;13578;53.450;15.496;2023-07-29T11:00:47;1.05;;;0.50;;
25721;SDS011;13578;53.450;15.496;2023-07-29T11:07:24;2.15;;;0.85;;
25721;SDS011;13578;53.450;15.496;2023-07-29T11:10:28;1.20;;;0.50;;
25721;SDS011;13578;53.450;15.496;2023-07-29T11:13:29;0.80;;;0.40;;
25721;SDS011;13578;53.450;15.496;2023-07-29T11:16:31;1.55;;;0.50;;
25721;SDS011;13578;53.450;15.496;2023-07-29T11:19:31;2.00;;;0.50;;
25721;SDS011;13578;53.450;15.496;2023-07-29T11:22:34;1.30;;;0.77;;
25721;SDS011;13578;53.450;15.496;2023-07-29T11:25:36;1.63;;;0.80;;
25721;SDS011;13578;53.450;15.496;2023-07-29T11:28:39;2.05;;;0.73;;
25721;SDS011;13578;53.450;15.496;2023-07-29T11:31:40;7.50;;;0.60;;
25721;SDS011;13578;53.450;15.496;2023-07-29T11:34:41;1.38;;;0.60;;
25721;SDS011;13578;53.450;15.496;2023-07-29T11:37:45;1.13;;;0.60;;
25721;SDS011;13578;53.450;15.496;2023-07-29T11:40:54;0.88;;;0.50;;
25721;SDS011;13578;53.450;15.496;2023-07-29T11:43:56;1.85;;;0.85;;
25721;SDS011;13578;53.450;15.496;2023-07-29T11:46:56;1.50;;;0.77;;
25721;SDS011;13578;53.450;15.496;2023-07-29T11:50:00;1.80;;;0.70;;
25721;SDS011;13578;53.450;15.496;2023-07-29T11:53:01;1.67;;;0.80;;
25721;SDS011;13578;53.450;15.496;2023-07-29T11:56:03;2.88;;;1.08;;
25721;SDS011;13578;53.450;15.496;2023-07-29T11:59:04;1.88;;;0.90;;
25721;SDS011;13578;53.450;15.496;2023-07-29T12:02:05;4.53;;;1.60;;
25721;SDS011;13578;53.450;15.496;2023-07-29T12:05:10;2.05;;;1.42;;
25721;SDS011;13578;53.450;15.496;2023-07-29T12:08:12;4.85;;;1.58;;
25721;SDS011;13578;53.450;15.496;2023-07-29T12:11:13;4.28;;;2.05;;
25721;SDS011;13578;53.450;15.496;2023-07-29T12:14:16;5.93;;;1.98;;
25721;SDS011;13578;53.450;15.496;2023-07-29T12:17:17;2.90;;;1.73;;
25721;SDS011;13578;53.450;15.496;2023-07-29T12:20:19;16.38;;;2.97;;
25721;SDS011;13578;53.450;15.496;2023-07-29T12:23:23;15.75;;;4.18;;
25721;SDS011;13578;53.450;15.496;2023-07-29T12:26:31;5.95;;;1.90;;
25721;SDS011;13578;53.450;15.496;2023-07-29T12:29:32;4.43;;;1.73;;
25721;SDS011;13578;53.450;15.496;2023-07-29T12:32:43;6.07;;;1.90;;
25721;SDS011;13578;53.450;15.496;2023-07-29T12:35:45;5.78;;;1.40;;
25721;SDS011;13578;53.450;15.496;2023-07-29T12:38:46;3.70;;;1.98;;
25721;SDS011;13578;53.450;15.496;2023-07-29T12:41:47;3.65;;;1.50;;
25721;SDS011;13578;53.450;15.496;2023-07-29T12:44:49;4.75;;;1.52;;
25721;SDS011;13578;53.450;15.496;2023-07-29T12:47:50;4.95;;;2.00;;
25721;SDS011;13578;53.450;15.496;2023-07-29T12:50:50;4.05;;;1.60;;
25721;SDS011;13578;53.450;15.496;2023-07-29T12:53:51;4.50;;;1.77;;
25721;SDS011;13578;53.450;15.496;2023-07-29T12:56:52;3.30;;;1.80;;
25721;SDS011;13578;53.450;15.496;2023-07-29T12:59:52;3.25;;;1.35;;
25721;SDS011;13578;53.450;15.496;2023-07-29T13:02:53;2.90;;;1.50;;
25721;SDS011;13578;53.450;15.496;2023-07-29T13:05:54;2.22;;;1.48;;
25721;SDS011;13578;53.450;15.496;2023-07-29T13:08:54;3.05;;;1.40;;
25721;SDS011;13578;53.450;15.496;2023-07-29T13:11:55;2.30;;;1.25;;
25721;SDS011;13578;53.450;15.496;2023-07-29T13:14:56;5.15;;;1.85;;
25721;SDS011;13578;53.450;15.496;2023-07-29T13:17:56;3.65;;;1.58;;
25721;SDS011;13578;53.450;15.496;2023-07-29T13:20:57;2.97;;;1.30;;
25721;SDS011;13578;53.450;15.496;2023-07-29T13:23:57;2.90;;;1.67;;
25721;SDS011;13578;53.450;15.496;2023-07-29T13:26:58;1.85;;;1.17;;
25721;SDS011;13578;53.450;15.496;2023-07-29T13:29:59;3.40;;;1.70;;
25721;SDS011;13578;53.450;15.496;2023-07-29T13:32:59;4.35;;;1.92;;
25721;SDS011;13578;53.450;15.496;2023-07-29T13:36:00;3.42;;;1.75;;
25721;SDS011;13578;53.450;15.496;2023-07-29T13:39:04;4.00;;;1.75;;
25721;SDS011;13578;53.450;15.496;2023-07-29T13:42:05;3.17;;;0.88;;
25721;SDS011;13578;53.450;15.496;2023-07-29T13:45:06;1.55;;;0.60;;
25721;SDS011;13578;53.450;15.496;2023-07-29T13:48:07;2.33;;;0.50;;
25721;SDS011;13578;53.450;15.496;2023-07-29T13:51:07;4.35;;;1.27;;
25721;SDS011;13578;53.450;15.496;2023-07-29T13:54:08;5.15;;;1.30;;
25721;SDS011;13578;53.450;15.496;2023-07-29T13:57:09;3.33;;;0.82;;
25721;SDS011;13578;53.450;15.496;2023-07-29T14:00:10;3.30;;;1.15;;
25721;SDS011;13578;53.450;15.496;2023-07-29T14:03:11;2.53;;;0.93;;
25721;SDS011;13578;53.450;15.496;2023-07-29T14:06:12;2.90;;;0.77;;
25721;SDS011;13578;53.450;15.496;2023-07-29T14:09:12;1.20;;;0.50;;
25721;SDS011;13578;53.450;15.496;2023-07-29T14:12:13;3.75;;;1.25;;
25721;SDS011;13578;53.450;15.496;2023-07-29T14:15:15;2.00;;;0.85;;
25721;SDS011;13578;53.450;15.496;2023-07-29T14:18:16;4.60;;;1.13;;
25721;SDS011;13578;53.450;15.496;2023-07-29T14:21:17;1.40;;;0.75;;
25721;SDS011;13578;53.450;15.496;2023-07-29T14:24:18;1.75;;;0.65;;
25721;SDS011;13578;53.450;15.496;2023-07-29T14:27:19;2.47;;;0.82;;
25721;SDS011;13578;53.450;15.496;2023-07-29T14:30:20;8.93;;;0.90;;
25721;SDS011;13578;53.450;15.496;2023-07-29T14:33:21;2.13;;;0.60;;
25721;SDS011;13578;53.450;15.496;2023-07-29T14:36:21;4.88;;;0.98;;
25721;SDS011;13578;53.450;15.496;2023-07-29T14:39:22;2.03;;;0.68;;
25721;SDS011;13578;53.450;15.496;2023-07-29T14:42:23;2.42;;;0.68;;
25721;SDS011;13578;53.450;15.496;2023-07-29T14:45:23;1.58;;;0.82;;
25721;SDS011;13578;53.450;15.496;2023-07-29T14:48:24;3.28;;;0.88;;
25721;SDS011;13578;53.450;15.496;2023-07-29T14:51:25;3.42;;;0.70;;
25721;SDS011;13578;53.450;15.496;2023-07-29T14:54:25;2.00;;;0.90;;
25721;SDS011;13578;53.450;15.496;2023-07-29T14:57:26;3.35;;;0.90;;
25721;SDS011;13578;53.450;15.496;2023-07-29T15:00:26;6.45;;;1.10;;
25721;SDS011;13578;53.450;15.496;2023-07-29T15:03:27;1.70;;;0.65;;
25721;SDS011;13578;53.450;15.496;2023-07-29T15:06:28;1.23;;;0.60;;
25721;SDS011;13578;53.450;15.496;2023-07-29T15:09:29;3.00;;;0.50;;
25721;SDS011;13578;53.450;15.496;2023-07-29T15:12:29;3.15;;;0.60;;
25721;SDS011;13578;53.450;15.496;2023-07-29T15:15:30;3.65;;;1.00;;
25721;SDS011;13578;53.450;15.496;2023-07-29T15:18:30;4.00;;;1.08;;
25721;SDS011;13578;53.450;15.496;2023-07-29T15:21:33;2.58;;;1.00;;
25721;SDS011;13578;53.450;15.496;2023-07-29T15:24:34;1.75;;;0.50;;
25721;SDS011;13578;53.450;15.496;2023-07-29T15:27:34;1.10;;;0.40;;
25721;SDS011;13578;53.450;15.496;2023-07-29T15:30:35;2.35;;;0.95;;
25721;SDS011;13578;53.450;15.496;2023-07-29T15:33:37;2.05;;;0.73;;
25721;SDS011;13578;53.450;15.496;2023-07-29T15:36:37;1.25;;;0.60;;
25721;SDS011;13578;53.450;15.496;2023-07-29T15:39:38;3.53;;;0.50;;
25721;SDS011;13578;53.450;15.496;2023-07-29T15:42:39;1.20;;;0.50;;
25721;SDS011;13578;53.450;15.496;2023-07-29T15:45:40;0.90;;;0.38;;
25721;SDS011;13578;53.450;15.496;2023-07-29T15:48:40;2.33;;;0.90;;
25721;SDS011;13578;53.450;15.496;2023-07-29T15:51:41;7.28;;;1.30;;
25721;SDS011;13578;53.450;15.496;2023-07-29T15:54:42;0.80;;;0.40;;
25721;SDS011;13578;53.450;15.496;2023-07-29T15:57:43;3.38;;;0.50;;
25721;SDS011;13578;53.450;15.496;2023-07-29T16:00:43;4.07;;;0.40;;
25721;SDS011;13578;53.450;15.496;2023-07-29T16:03:44;1.52;;;0.77;;
25721;SDS011;13578;53.450;15.496;2023-07-29T16:06:46;1.08;;;0.40;;
25721;SDS011;13578;53.450;15.496;2023-07-29T16:09:46;1.25;;;0.47;;
25721;SDS011;13578;53.450;15.496;2023-07-29T16:12:47;0.65;;;0.38;;
25721;SDS011;13578;53.450;15.496;2023-07-29T16:15:48;2.70;;;0.60;;
25721;SDS011;13578;53.450;15.496;2023-07-29T16:18:48;1.67;;;0.60;;
25721;SDS011;13578;53.450;15.496;2023-07-29T16:21:49;2.65;;;0.55;;
25721;SDS011;13578;53.450;15.496;2023-07-29T16:24:50;1.00;;;0.38;;
25721;SDS011;13578;53.450;15.496;2023-07-29T16:27:52;3.75;;;1.13;;
25721;SDS011;13578;53.450;15.496;2023-07-29T16:30:53;1.10;;;0.52;;
25721;SDS011;13578;53.450;15.496;2023-07-29T16:33:54;0.90;;;0.50;;
25721;SDS011;13578;53.450;15.496;2023-07-29T16:36:55;7.07;;;0.75;;
25721;SDS011;13578;53.450;15.496;2023-07-29T16:39:55;2.28;;;0.85;;
25721;SDS011;13578;53.450;15.496;2023-07-29T16:42:56;5.03;;;0.70;;
25721;SDS011;13578;53.450;15.496;2023-07-29T16:45:56;1.05;;;0.52;;
25721;SDS011;13578;53.450;15.496;2023-07-29T16:48:57;1.10;;;0.68;;
25721;SDS011;13578;53.450;15.496;2023-07-29T16:51:58;1.50;;;0.50;;
25721;SDS011;13578;53.450;15.496;2023-07-29T16:54:58;1.45;;;0.82;;
25721;SDS011;13578;53.450;15.496;2023-07-29T16:57:59;2.53;;;1.02;;
25721;SDS011;13578;53.450;15.496;2023-07-29T17:01:00;8.30;;;0.80;;
25721;SDS011;13578;53.450;15.496;2023-07-29T17:04:00;3.15;;;1.10;;
25721;SDS011;13578;53.450;15.496;2023-07-29T17:07:01;1.35;;;0.73;;
25721;SDS011;13578;53.450;15.496;2023-07-29T17:10:02;1.10;;;0.73;;
25721;SDS011;13578;53.450;15.496;2023-07-29T17:13:02;1.77;;;0.70;;
25721;SDS011;13578;53.450;15.496;2023-07-29T17:16:03;1.20;;;0.63;;
25721;SDS011;13578;53.450;15.496;2023-07-29T17:19:04;2.28;;;0.90;;
25721;SDS011;13578;53.450;15.496;2023-07-29T17:22:04;2.45;;;0.90;;
25721;SDS011;13578;53.450;15.496;2023-07-29T17:25:05;4.25;;;1.08;;
25721;SDS011;13578;53.450;15.496;2023-07-29T17:28:06;2.60;;;0.90;;
25721;SDS011;13578;53.450;15.496;2023-07-29T17:31:07;2.08;;;1.10;;
25721;SDS011;13578;53.450;15.496;2023-07-29T17:34:07;2.20;;;1.02;;
25721;SDS011;13578;53.450;15.496;2023-07-29T17:37:08;1.90;;;0.95;;
25721;SDS011;13578;53.450;15.496;2023-07-29T17:40:09;4.13;;;1.33;;
25721;SDS011;13578;53.450;15.496;2023-07-29T17:43:09;2.28;;;1.23;;
25721;SDS011;13578;53.450;15.496;2023-07-29T17:46:10;2.03;;;1.10;;
25721;SDS011;13578;53.450;15.496;2023-07-29T17:49:17;3.33;;;1.58;;
25721;SDS011;13578;53.450;15.496;2023-07-29T17:52:17;5.13;;;2.25;;
25721;SDS011;13578;53.450;15.496;2023-07-29T17:55:18;4.53;;;2.28;;
25721;SDS011;13578;53.450;15.496;2023-07-29T17:58:19;6.20;;;3.17;;
25721;SDS011;13578;53.450;15.496;2023-07-29T18:01:19;4.30;;;2.22;;
25721;SDS011;13578;53.450;15.496;2023-07-29T18:04:20;4.22;;;2.75;;
25721;SDS011;13578;53.450;15.496;2023-07-29T18:07:21;4.20;;;2.20;;
25721;SDS011;13578;53.450;15.496;2023-07-29T18:10:21;4.88;;;2.22;;
25721;SDS011;13578;53.450;15.496;2023-07-29T18:13:24;1.95;;;1.48;;